Time;durP1;ratioP1;P1;durP2;ratioP2;P2;SDS_P1;SDS_P2;PMS_P1;PMS_P2;Temp;Humidity;BMP_temperature;BMP_pressure;BME280_temperature;BME280_humidity;BME280_pressure;Samples;Min_cycle;Max_cycle;Signal;HPM_P1;HPM_P2
2023/11/25 00:01:14;;;;;;;31.48;6.55;;;9.20;99.90;;;9.36;82.13;101322.31;5116689;28;20050;-70
2023/11/25 00:03:43;;;;;;;;;;;9.20;99.90;;;9.20;81.14;101315.13;5117065;28;20097;-70
2023/11/25 00:06:12;;;;;;;22.65;6.00;;;9.10;99.90;;;9.24;80.58;101309.00;5100897;28;19924;-70
2023/11/25 00:08:41;;;;;;;24.45;6.30;;;9.20;99.90;;;9.34;79.66;101308.22;5117189;28;20040;-70
2023/11/25 00:11:10;;;;;;;21.88;6.38;;;9.20;99.90;;;9.35;79.13;101307.31;5116823;28;20047;-70
2023/11/25 00:13:52;;;;;;;24.65;5.68;;;9.20;99.90;;;9.32;78.67;101291.47;5116776;28;20054;-70
2023/11/25 00:16:21;;;;;;;18.02;5.63;;;9.30;99.90;;;9.40;78.31;101302.09;5116878;28;20047;-69
2023/11/25 00:18:49;;;;;;;20.10;5.72;;;9.20;99.90;;;9.23;78.42;101279.97;5116761;28;20044;-69
2023/11/25 00:21:17;;;;;;;26.02;6.40;;;9.20;99.90;;;9.47;77.56;101306.53;5116436;28;20135;-70
2023/11/25 00:23:47;;;;;;;25.27;6.10;;;9.30;99.90;;;9.47;77.59;101307.41;5116789;28;20067;-69
2023/11/25 00:26:15;;;;;;;23.52;6.32;;;9.30;99.90;;;9.50;77.11;101303.94;5116750;28;20059;-69
2023/11/25 00:28:56;;;;;;;21.75;6.95;;;9.30;99.90;;;9.45;76.91;101309.16;5116769;28;20036;-70
2023/11/25 00:31:24;;;;;;;23.75;5.72;;;9.30;99.90;;;9.45;76.63;101303.00;5098292;28;20039;-70
2023/11/25 00:33:53;;;;;;;25.48;5.97;;;9.30;99.90;;;9.48;76.52;101298.66;5116577;28;20040;-70
2023/11/25 00:36:21;;;;;;;30.15;7.03;;;9.30;99.90;;;9.42;77.00;101301.25;5097935;28;20055;-70
2023/11/25 00:38:52;;;;;;;28.92;7.20;;;9.20;99.90;;;9.51;76.87;101301.28;5116428;28;20096;-70
2023/11/25 00:41:20;;;;;;;;;;;9.30;99.90;;;9.51;75.95;101292.47;5116462;28;20059;-70
2023/11/25 00:43:48;;;;;;;30.50;7.25;;;9.30;99.90;;;9.55;75.58;101289.00;5114747;28;19926;-70
2023/11/25 00:46:17;;;;;;;25.70;6.43;;;9.40;99.90;;;9.52;75.30;101284.59;5098041;28;20052;-70
2023/11/25 00:48:46;;;;;;;28.10;6.80;;;9.30;99.90;;;9.56;74.24;101280.22;5097977;28;20059;-70
2023/11/25 00:51:15;;;;;;;28.67;6.13;;;9.40;99.90;;;9.59;72.60;101274.94;5097964;28;20051;-70
2023/11/25 00:53:43;;;;;;;25.50;6.30;;;9.40;99.90;;;9.60;71.04;101285.50;5115913;28;20435;-69
2023/11/25 00:56:13;;;;;;;23.40;6.47;;;9.40;99.90;;;9.41;69.36;101312.66;5097842;28;20582;-69
2023/11/25 00:58:41;;;;;;;23.63;6.10;;;9.30;99.90;;;9.41;70.92;101317.94;5097282;28;20055;-69
2023/11/25 01:01:10;;;;;;;23.75;6.20;;;9.30;99.90;;;9.04;74.41;101287.72;5116192;28;20758;-69
2023/11/25 01:03:38;;;;;;;26.45;6.32;;;9.10;99.90;;;9.29;75.38;101301.13;5115936;28;20071;-70
2023/11/25 01:06:08;;;;;;;21.67;6.28;;;9.10;99.90;;;8.88;76.22;101222.50;5115651;28;20450;-69
2023/11/25 01:08:37;;;;;;;20.63;5.63;;;9.20;99.90;;;9.48;76.59;101306.56;5097641;28;20054;-69
2023/11/25 01:11:06;;;;;;;24.30;5.80;;;9.30;99.90;;;9.59;76.25;101298.69;5115825;28;20071;-69
2023/11/25 01:13:36;;;;;;;27.52;6.53;;;9.40;99.90;;;9.47;76.06;101295.97;5115802;28;20047;-69
2023/11/25 01:16:16;;;;;;;24.13;6.18;;;9.30;99.90;;;9.61;76.53;101292.56;5096381;28;20146;-70
2023/11/25 01:18:44;;;;;;;23.40;6.73;;;9.40;99.90;;;9.36;77.45;101298.56;5115817;28;20054;-70
2023/11/25 01:21:13;;;;;;;28.02;6.68;;;9.30;99.90;;;9.47;77.24;101303.88;5115285;28;20429;-69
2023/11/25 01:23:42;;;;;;;29.33;7.07;;;9.30;99.90;;;9.44;76.09;101267.81;5097326;28;20048;-69
2023/11/25 01:26:10;;;;;;;30.08;6.72;;;9.40;99.90;;;9.43;76.10;101305.63;5115557;28;20044;-70
2023/11/25 01:28:42;;;;;;;27.40;6.45;;;9.30;99.90;;;9.48;75.06;101303.03;5115495;28;20117;-70
2023/11/25 01:31:11;;;;;;;30.75;6.80;;;9.30;99.90;;;9.58;73.88;101304.88;5115503;28;20055;-69
2023/11/25 01:33:40;;;;;;;29.88;6.90;;;9.40;99.90;;;9.64;73.05;101326.91;5096790;28;20036;-70
2023/11/25 01:36:10;;;;;;;39.05;7.63;;;9.50;99.90;;;9.58;72.02;101300.44;5115364;28;20056;-69
2023/11/25 01:38:38;;;;;;;24.48;7.07;;;9.50;99.90;;;9.45;70.84;101298.59;5115320;28;20048;-69
2023/11/25 01:41:07;;;;;;;27.38;6.25;;;9.60;99.90;;;9.72;69.73;101308.47;5115172;28;20362;-69
2023/11/25 01:43:37;;;;;;;31.13;6.68;;;9.60;99.90;;;9.66;69.50;101308.41;5115231;28;20096;-69
2023/11/25 01:46:07;;;;;;;26.95;6.05;;;9.50;99.90;;;9.63;68.40;101305.78;5096847;28;20051;-69
2023/11/25 01:48:36;;;;;;;24.35;6.85;;;9.60;99.90;;;9.79;68.15;101318.22;5114842;28;20062;-69
2023/11/25 01:51:07;;;;;;;27.20;6.30;;;9.70;99.90;;;9.82;67.52;101319.09;5097015;28;20065;-70
2023/11/25 01:53:38;;;;;;;;;;;9.70;99.90;;;9.80;67.84;101317.31;5115207;28;20044;-70
2023/11/25 01:56:09;;;;;;;25.15;6.43;;;9.70;99.90;;;9.68;68.48;101312.84;5114998;28;19919;-69
2023/11/25 01:58:39;;;;;;;24.38;6.20;;;9.50;99.90;;;9.71;67.66;101299.66;5096257;28;20063;-69
2023/11/25 02:01:10;;;;;;;31.48;6.18;;;9.60;99.90;;;9.83;67.15;101320.84;5096587;28;20113;-69
2023/11/25 02:03:38;;;;;;;23.38;6.72;;;9.70;99.90;;;9.89;67.16;101312.09;5114909;28;20047;-70
2023/11/25 02:06:07;;;;;;;24.30;5.88;;;9.70;99.90;;;9.85;66.76;101305.03;5096072;28;20074;-70
2023/11/25 02:08:35;;;;;;;21.02;6.25;;;9.70;99.90;;;9.98;66.91;101307.75;5114679;28;20067;-70
2023/11/25 02:11:04;;;;;;;26.23;6.15;;;9.80;99.90;;;10.00;66.96;101308.66;5114374;28;20511;-69
2023/11/25 02:13:32;;;;;;;31.70;6.85;;;9.90;99.90;;;10.09;66.76;101306.88;5096341;28;20104;-70
2023/11/25 02:16:01;;;;;;;32.70;6.40;;;9.90;99.90;;;10.03;66.97;101310.41;5114584;28;20039;-70
2023/11/25 02:18:31;;;;;;;21.05;6.07;;;9.90;99.90;;;10.16;66.61;101309.63;5096184;28;20047;-70
2023/11/25 02:20:59;;;;;;;24.90;6.57;;;10.00;99.90;;;10.20;66.86;101314.03;5114449;28;20432;-70
2023/11/25 02:23:29;;;;;;;27.27;6.70;;;10.10;99.90;;;10.18;67.08;101313.13;5114734;28;20418;-70
2023/11/25 02:25:57;;;;;;;28.38;6.93;;;10.00;99.90;;;10.12;67.07;101310.50;5114143;28;20101;-70
2023/11/25 02:28:26;;;;;;;24.30;6.43;;;10.00;99.90;;;10.04;66.93;101302.47;5113865;28;20047;-70
2023/11/25 02:30:57;;;;;;;33.33;6.50;;;9.90;99.90;;;10.16;67.30;101306.09;5095975;28;20134;-70
2023/11/25 02:33:35;;;;;;;32.67;7.90;;;10.00;99.90;;;10.09;66.82;101291.94;5096008;28;20105;-70
2023/11/25 02:36:06;;;;;;;33.83;7.18;;;9.90;99.90;;;10.05;67.00;101284.84;5114433;28;20046;-70
2023/11/25 02:38:36;;;;;;;22.48;6.40;;;10.00;99.90;;;10.10;66.50;101288.47;5113990;28;20100;-70
2023/11/25 02:41:05;;;;;;;27.67;6.45;;;9.90;99.90;;;10.09;65.92;101293.69;5095758;28;20493;-70
2023/11/25 02:43:33;;;;;;;25.40;6.35;;;9.90;99.90;;;9.86;66.11;101290.94;5095831;28;20541;-70
2023/11/25 02:46:03;;;;;;;28.05;5.82;;;9.80;99.90;;;10.07;66.20;101296.31;5095662;28;20062;-70
2023/11/25 02:48:32;;;;;;;18.13;5.72;;;9.90;99.90;;;10.04;65.83;101291.91;5095845;28;20064;-70
2023/11/25 02:51:01;;;;;;;25.35;6.20;;;9.90;99.90;;;10.11;64.64;101291.97;5114164;28;20047;-70
2023/11/25 02:53:30;;;;;;;26.75;6.00;;;9.90;99.90;;;9.74;63.14;101291.75;5114165;28;20051;-70
2023/11/25 02:56:00;;;;;;;19.10;6.15;;;9.70;99.90;;;9.96;62.80;101288.38;5095111;28;20138;-70
2023/11/25 02:58:28;;;;;;;21.50;5.80;;;9.80;99.90;;;9.75;62.83;101288.25;5113614;28;20047;-70
2023/11/25 03:01:01;;;;;;;23.92;5.93;;;9.60;99.90;;;9.78;62.21;101282.97;5113769;28;20114;-70
2023/11/25 03:03:29;;;;;;;16.60;5.22;;;9.60;99.90;;;9.70;61.94;101279.41;5095479;28;20047;-70
2023/11/25 03:06:00;;;;;;;23.77;5.55;;;9.50;99.90;;;9.77;63.12;101275.94;5113728;28;20053;-70
2023/11/25 03:08:28;;;;;;;23.63;5.63;;;9.50;99.90;;;9.92;62.48;101280.41;5095515;28;20497;-70
2023/11/25 03:10:57;;;;;;;21.55;5.55;;;9.70;99.90;;;9.94;62.67;101276.91;5113628;28;20044;-70
2023/11/25 03:13:26;;;;;;;24.27;5.90;;;9.80;99.90;;;10.10;62.37;101274.34;5095317;28;20131;-70
2023/11/25 03:15:55;;;;;;;27.30;5.82;;;9.90;99.90;;;10.07;62.60;101274.28;5095322;28;20047;-70
2023/11/25 03:18:23;;;;;;;17.58;5.55;;;9.90;99.90;;;10.16;62.53;101274.38;5113528;28;20047;-70
2023/11/25 03:20:52;;;;;;;17.77;5.47;;;9.90;99.90;;;10.31;62.55;101264.75;5113488;28;20036;-70
2023/11/25 03:23:20;;;;;;;16.77;5.55;;;10.10;99.90;;;10.09;62.01;101256.69;5113336;28;20077;-70
2023/11/25 03:25:49;;;;;;;22.38;5.70;;;10.00;99.90;;;10.04;62.13;101265.47;5095232;28;20044;-70
2023/11/25 03:28:19;;;;;;;21.38;5.18;;;10.00;99.90;;;10.04;62.05;101259.31;5113424;28;20047;-70
2023/11/25 03:30:50;;;;;;;24.30;5.38;;;9.90;99.90;;;9.79;62.46;101258.31;5113484;28;20044;-70
2023/11/25 03:33:18;;;;;;;24.45;5.05;;;9.80;99.90;;;9.72;63.39;101260.91;5113385;28;20039;-70
2023/11/25 03:35:48;;;;;;;16.27;4.80;;;9.60;99.90;;;9.44;64.74;101267.81;5113399;28;20039;-70
2023/11/25 03:38:16;;;;;;;16.98;4.63;;;9.40;99.90;;;9.44;65.22;101267.81;5095059;28;20052;-70
2023/11/25 03:40:44;;;;;;;11.65;3.92;;;9.30;99.90;;;9.42;65.79;101266.91;5117657;28;20047;-70
2023/11/25 03:43:13;;;;;;;9.95;4.00;;;9.30;99.90;;;9.21;67.84;101269.41;5117424;28;20039;-70
2023/11/25 03:45:42;;;;;;;7.47;3.45;;;9.10;99.90;;;9.38;68.19;101266.88;5117479;28;20043;-70
2023/11/25 03:48:11;;;;;;;10.95;4.20;;;9.20;99.90;;;9.44;69.00;101273.09;5099155;28;20051;-70
2023/11/25 03:50:40;;;;;;;13.20;4.53;;;9.20;99.90;;;9.29;70.10;101278.25;5118022;28;20105;-70
2023/11/25 03:53:08;;;;;;;13.40;4.18;;;9.20;99.90;;;9.26;71.14;101286.16;5117071;28;20386;-70
2023/11/25 03:55:36;;;;;;;17.20;4.10;;;9.10;99.90;;;9.30;73.28;101272.09;5117198;28;20040;-70
2023/11/25 03:58:05;;;;;;;15.10;4.65;;;9.10;99.90;;;8.97;76.82;101285.03;5098722;28;20477;-69
2023/11/25 04:00:33;;;;;;;16.90;4.85;;;8.90;99.90;;;8.88;78.94;101277.03;5098625;28;20120;-70
2023/11/25 04:03:02;;;;;;;23.75;4.40;;;8.80;99.90;;;8.69;79.91;101275.13;5117099;28;20052;-70
2023/11/25 04:05:33;;;;;;;16.15;4.72;;;8.60;99.90;;;8.85;79.78;101266.44;5117207;28;20040;-70
2023/11/25 04:08:01;;;;;;;13.57;4.40;;;8.60;99.90;;;8.85;78.49;101274.38;5116942;28;20442;-70
2023/11/25 04:10:29;;;;;;;9.30;4.07;;;8.70;99.90;;;9.03;77.47;101282.44;5116752;28;20040;-70
2023/11/25 04:12:58;;;;;;;11.80;3.97;;;8.80;99.90;;;8.97;76.45;101285.91;5117287;28;20054;-70
2023/11/25 04:15:27;;;;;;;10.77;3.85;;;8.80;99.90;;;9.04;75.64;101285.09;5098902;28;20404;-70
2023/11/25 04:17:55;;;;;;;10.82;3.38;;;8.80;99.90;;;9.03;74.18;101293.91;5116623;28;20050;-70
2023/11/25 04:20:29;;;;;;;8.13;3.67;;;8.80;99.90;;;9.17;73.42;101294.00;5098542;28;20492;-70
2023/11/25 04:23:05;;;;;;;10.32;3.40;;;9.00;99.90;;;8.97;73.05;101283.28;5116474;28;20040;-70
2023/11/25 04:25:35;;;;;;;7.72;3.67;;;8.90;99.90;;;8.96;73.96;101296.47;5098594;28;20044;-70
2023/11/25 04:28:06;;;;;;;11.30;3.75;;;8.80;99.90;;;8.88;74.49;101293.72;5098338;28;20047;-70
2023/11/25 04:30:35;;;;;;;6.28;3.60;;;8.70;99.90;;;9.18;75.29;101301.03;5116426;28;20480;-70
2023/11/25 04:33:04;;;;;;;10.00;3.58;;;8.90;99.90;;;8.88;77.21;101279.69;5116392;28;20495;-70
2023/11/25 04:35:32;;;;;;;9.95;3.95;;;8.90;99.90;;;8.89;80.18;101281.44;5116287;28;20255;-70
2023/11/25 04:38:02;;;;;;;9.30;3.70;;;8.70;99.90;;;8.85;81.12;101262.06;5116796;28;20063;-70
2023/11/25 04:40:31;;;;;;;10.82;4.20;;;8.70;99.90;;;8.94;80.82;101232.25;5116831;28;20040;-70
2023/11/25 04:42:59;;;;;;;12.88;3.78;;;8.90;99.90;;;8.94;81.61;101259.50;5116035;28;20459;-70
2023/11/25 04:45:28;;;;;;;7.47;3.85;;;8.80;99.90;;;8.80;82.43;101221.59;5116067;28;20450;-70
2023/11/25 04:47:56;;;;;;;15.15;4.40;;;8.80;99.90;;;8.77;83.25;101265.50;5116007;28;20515;-70
2023/11/25 04:50:26;;;;;;;11.82;4.03;;;8.70;99.90;;;9.08;83.73;101267.53;5097905;28;20063;-70
2023/11/25 04:52:55;;;;;;;10.02;4.38;;;8.80;99.90;;;9.26;83.37;101269.41;5115984;28;20492;-70
2023/11/25 04:55:27;;;;;;;12.52;4.10;;;9.00;99.90;;;9.38;82.30;101265.13;5116175;28;20078;-70
2023/11/25 04:57:57;;;;;;;11.23;4.10;;;9.10;99.90;;;9.46;81.48;101270.44;5116446;28;20055;-71
2023/11/25 05:00:25;;;;;;;10.35;3.97;;;9.20;99.90;;;9.44;81.40;101246.69;5116168;28;20408;-70
2023/11/25 05:02:54;;;;;;;12.65;4.28;;;9.30;99.90;;;9.49;80.80;101259.91;5115654;28;20067;-70
2023/11/25 05:05:23;;;;;;;12.55;3.63;;;9.30;99.90;;;9.37;81.12;101255.44;5115990;28;20105;-70
2023/11/25 05:07:51;;;;;;;12.30;4.82;;;9.20;99.90;;;9.43;81.57;101258.09;5115940;28;20040;-70
2023/11/25 05:10:20;;;;;;;16.42;4.97;;;9.20;99.90;;;9.45;81.20;101251.09;5115644;28;20040;-70
2023/11/25 05:12:51;;;;;;;19.42;5.05;;;9.20;99.90;;;9.50;81.03;101245.84;5115602;28;20093;-70
2023/11/25 05:15:22;;;;;;;24.30;5.00;;;9.30;99.90;;;9.22;80.21;101235.97;5097518;28;20593;-70
2023/11/25 05:17:51;;;;;;;20.08;4.93;;;9.10;99.90;;;9.19;77.29;101272.91;5116035;28;20546;-70
2023/11/25 05:20:19;;;;;;;12.98;4.43;;;9.10;99.90;;;9.17;76.21;101237.69;5115434;28;20044;-70
2023/11/25 05:22:48;;;;;;;16.17;4.75;;;9.00;99.90;;;9.06;77.04;101233.22;5115305;28;20496;-70
2023/11/25 05:25:16;;;;;;;14.95;4.80;;;9.00;99.90;;;9.06;77.42;101246.41;5097245;28;20065;-70
2023/11/25 05:27:45;;;;;;;14.50;4.55;;;8.90;99.90;;;9.06;77.56;101225.31;5115275;28;20048;-69
2023/11/25 05:30:15;;;;;;;17.83;4.45;;;9.00;99.90;;;8.89;78.87;101239.22;5115505;28;20075;-70
2023/11/25 05:32:44;;;;;;;20.67;4.70;;;8.90;99.90;;;9.00;79.78;101251.63;5115268;28;20042;-70
2023/11/25 05:35:14;;;;;;;16.25;4.32;;;8.90;99.90;;;8.89;78.71;101231.31;5115132;28;20040;-70
2023/11/25 05:37:43;;;;;;;12.40;4.55;;;8.80;99.90;;;9.19;77.73;101242.13;5115393;28;20067;-70
2023/11/25 05:40:14;;;;;;;;;;;9.00;99.90;;;9.22;77.19;101231.56;5116037;28;20039;-70
2023/11/25 05:42:52;;;;;;;;;;;9.10;99.90;;;8.86;76.79;101232.19;5097303;28;19935;-70
2023/11/25 05:45:26;;;;;;;15.90;4.07;;;8.90;99.90;;;9.10;76.54;101229.72;5096999;28;19919;-70
2023/11/25 05:47:56;;;;;;;15.88;4.25;;;9.00;99.90;;;9.07;75.82;101231.47;5115133;28;20055;-70
2023/11/25 05:50:24;;;;;;;11.80;4.00;;;8.90;99.90;;;9.26;75.43;101230.72;5115404;28;20130;-70
2023/11/25 05:52:55;;;;;;;11.55;3.58;;;9.10;99.90;;;9.32;74.63;101236.03;5115288;28;20044;-70
2023/11/25 05:55:24;;;;;;;9.38;3.72;;;9.10;99.90;;;9.20;76.00;101265.00;5096717;28;20051;-70
2023/11/25 05:57:55;;;;;;;12.98;4.55;;;9.00;99.90;;;9.42;76.49;101256.34;5115027;28;20537;-70
2023/11/25 06:00:29;;;;;;;8.20;4.05;;;9.30;99.90;;;8.83;78.20;101207.53;5115092;28;20511;-70
2023/11/25 06:02:57;;;;;;;;;;;9.00;99.90;;;9.29;78.62;101236.00;5115033;28;20040;-69
2023/11/25 06:05:27;;;;;;;11.88;3.72;;;9.10;99.90;;;8.84;80.82;101218.13;5114540;28;19923;-70
2023/11/25 06:07:55;;;;;;;12.13;3.57;;;8.80;99.90;;;8.68;81.29;101215.31;5114497;28;20495;-70
2023/11/25 06:10:24;;;;;;;10.30;4.15;;;8.60;99.90;;;8.62;81.10;101209.97;5114381;28;20040;-70
2023/11/25 06:12:52;;;;;;;11.45;3.83;;;8.50;99.90;;;8.53;81.09;101199.38;5096329;28;20049;-69
2023/11/25 06:15:22;;;;;;;8.95;3.40;;;8.40;99.90;;;8.43;81.34;101198.41;5114310;28;20054;-70
2023/11/25 06:17:52;;;;;;;12.07;3.80;;;8.30;99.90;;;8.34;81.73;101202.69;5096161;28;20050;-70
2023/11/25 06:20:24;;;;;;;17.95;4.10;;;8.20;99.90;;;8.33;82.01;101209.72;5114301;28;20047;-70
2023/11/25 06:22:53;;;;;;;15.95;4.47;;;8.20;99.90;;;8.40;82.39;101194.84;5096235;28;20048;-69
2023/11/25 06:25:22;;;;;;;17.67;5.07;;;8.30;99.90;;;8.38;82.83;101205.38;5114109;28;20036;-69
2023/11/25 06:27:51;;;;;;;13.73;4.55;;;8.20;99.90;;;8.60;82.62;101203.81;5114049;28;20123;-69
2023/11/25 06:30:21;;;;;;;24.23;5.00;;;8.40;99.90;;;8.58;83.79;101201.16;5114382;28;20062;-70
2023/11/25 06:32:51;;;;;;;15.48;4.70;;;8.40;99.90;;;8.50;84.51;101188.78;5114373;28;20088;-70
2023/11/25 06:35:23;;;;;;;16.35;4.85;;;8.40;99.90;;;8.54;85.07;101212.56;5113958;28;20089;-70
2023/11/25 06:37:51;;;;;;;18.92;5.00;;;8.40;99.90;;;8.76;84.22;101211.88;5113958;28;20043;-70
2023/11/25 06:40:20;;;;;;;14.55;4.20;;;8.50;99.90;;;8.73;81.42;101208.34;5095856;28;20039;-70
2023/11/25 06:42:49;;;;;;;13.50;4.32;;;8.60;99.90;;;8.81;80.04;101206.63;5114076;28;20455;-70
2023/11/25 06:45:17;;;;;;;13.93;4.20;;;8.70;99.90;;;8.75;79.07;101202.19;5113892;28;20047;-69
2023/11/25 06:47:49;;;;;;;13.32;4.20;;;8.70;99.90;;;9.01;78.36;101215.59;5114263;28;20063;-70
2023/11/25 06:50:20;;;;;;;13.27;4.43;;;8.90;99.90;;;9.00;78.46;101216.47;5113712;28;20122;-70
2023/11/25 06:52:48;;;;;;;;;;;9.00;99.90;;;9.10;78.83;101215.66;5114075;28;20046;-69
2023/11/25 06:55:18;;;;;;;11.32;3.65;;;8.90;99.90;;;9.12;78.14;101200.72;5113586;28;20372;-69
2023/11/25 06:57:47;;;;;;;10.75;3.78;;;9.00;99.90;;;9.10;77.58;101202.44;5113858;28;20042;-69
2023/11/25 07:00:16;;;;;;;15.07;4.35;;;9.00;99.90;;;9.12;78.08;101197.22;5113914;28;20063;-70
2023/11/25 07:02:45;;;;;;;14.85;4.40;;;9.00;99.90;;;9.16;77.75;101204.25;5095442;28;20097;-69
2023/11/25 07:05:14;;;;;;;13.00;4.57;;;9.00;99.90;;;9.23;77.21;101206.06;5113400;28;20446;-70
2023/11/25 07:07:44;;;;;;;13.80;4.07;;;9.10;99.90;;;9.22;79.32;101197.25;5095394;28;20055;-70
2023/11/25 07:10:13;;;;;;;21.35;5.22;;;9.10;99.90;;;9.36;79.97;101203.50;5113653;28;20438;-70
2023/11/25 07:12:43;;;;;;;12.75;4.53;;;9.20;99.90;;;9.43;79.72;101193.84;5113529;28;20378;-70
2023/11/25 07:15:12;;;;;;;21.58;5.18;;;9.30;99.90;;;9.23;80.03;101196.41;5112855;28;20074;-70
2023/11/25 07:17:40;;;;;;;20.13;5.45;;;9.20;99.90;;;9.42;79.56;101198.28;5113218;28;20047;-70
2023/11/25 07:20:18;;;;;;;25.05;5.47;;;9.30;99.90;;;9.34;78.93;101197.34;5095144;28;20099;-69
2023/11/25 07:22:48;;;;;;;18.65;4.95;;;9.20;99.90;;;9.51;79.02;101200.94;5113249;28;20046;-69
2023/11/25 07:25:18;;;;;;;21.70;5.32;;;9.40;99.90;;;9.67;78.64;101210.72;5095113;28;20050;-70
2023/11/25 07:27:47;;;;;;;;;;;9.50;99.90;;;9.69;78.75;101206.34;5113577;28;20423;-70
2023/11/25 07:30:16;;;;;;;18.35;5.30;;;9.60;99.90;;;9.66;78.03;101213.34;5113654;28;20322;-69
2023/11/25 07:32:45;;;;;;;18.20;5.13;;;9.60;99.90;;;9.76;77.62;101216.03;5113130;28;20051;-69
2023/11/25 07:35:14;;;;;;;19.52;4.80;;;9.60;99.90;;;9.77;77.79;101204.63;5113360;28;20119;-70
2023/11/25 07:37:42;;;;;;;20.88;5.20;;;9.70;99.90;;;9.66;78.14;101213.34;5095051;28;20092;-70
2023/11/25 07:40:14;;;;;;;20.20;5.00;;;9.60;99.90;;;9.41;79.20;101212.34;5112998;28;20035;-69
2023/11/25 07:42:48;;;;;;;22.67;5.15;;;9.40;99.90;;;9.45;78.71;101208.84;5113339;28;20812;-69
2023/11/25 07:45:17;;;;;;;19.27;4.95;;;9.30;99.90;;;9.42;78.68;101208.84;5094833;28;20097;-69
2023/11/25 07:47:47;;;;;;;20.25;5.20;;;9.30;99.90;;;9.52;78.59;101215.94;5113151;28;20515;-70
2023/11/25 07:50:17;;;;;;;17.77;4.63;;;9.40;99.90;;;9.67;78.22;101213.38;5112918;28;20047;-70
2023/11/25 07:52:46;;;;;;;18.17;5.73;;;9.50;99.90;;;9.65;77.94;101212.47;5113112;28;20051;-70
2023/11/25 07:55:16;;;;;;;16.98;4.80;;;9.60;99.90;;;9.79;77.37;101208.13;5112781;28;20031;-70
2023/11/25 07:57:46;;;;;;;;;;;9.70;99.90;;;9.74;77.17;101207.22;5113590;28;20261;-70
2023/11/25 08:00:18;;;;;;;26.63;4.93;;;9.60;99.90;;;9.83;76.69;101211.69;5113246;28;19924;-70
2023/11/25 08:02:48;;;;;;;14.05;4.85;;;9.70;99.90;;;9.75;76.36;101209.00;5113403;28;20297;-70
2023/11/25 08:05:22;;;;;;;14.55;4.93;;;9.60;99.90;;;9.92;76.38;101212.59;5112719;28;20118;-70
2023/11/25 08:07:53;;;;;;;16.80;4.50;;;9.80;99.90;;;9.69;76.13;101211.63;5113110;28;20051;-70
2023/11/25 08:10:31;;;;;;;15.15;4.50;;;9.60;99.90;;;9.75;75.66;101201.09;5113020;28;20126;-70
2023/11/25 08:12:59;;;;;;;14.77;4.82;;;9.60;99.90;;;9.91;74.64;101208.16;5112739;28;20040;-70
2023/11/25 08:15:28;;;;;;;14.70;4.10;;;9.80;99.90;;;9.94;73.95;101216.13;5113195;28;20043;-70
2023/11/25 08:17:58;;;;;;;15.30;4.30;;;9.80;99.90;;;10.16;73.66;101216.22;5112639;28;20508;-70
2023/11/25 08:20:26;;;;;;;14.00;4.53;;;10.00;99.90;;;9.59;73.50;101133.22;5112968;28;20055;-70
2023/11/25 08:22:55;;;;;;;13.70;4.38;;;9.90;99.90;;;10.24;73.45;101225.06;5112629;28;20071;-70
2023/11/25 08:25:25;;;;;;;11.73;4.35;;;10.10;99.90;;;10.16;73.61;101214.47;5096051;28;20043;-70
2023/11/25 08:27:53;;;;;;;14.20;4.53;;;10.10;99.90;;;9.85;73.82;101216.06;5116721;28;20035;-70
2023/11/25 08:30:22;;;;;;;13.82;4.38;;;9.90;99.90;;;9.98;74.12;101222.31;5116657;28;20047;-70
2023/11/25 08:32:50;;;;;;;16.50;4.43;;;9.80;99.90;;;9.72;74.01;101230.09;5116314;28;20039;-70
2023/11/25 08:35:19;;;;;;;13.38;4.57;;;9.60;99.90;;;10.02;74.15;101224.06;5116269;28;20511;-70
2023/11/25 08:37:48;;;;;;;14.80;4.40;;;9.80;99.90;;;10.20;73.82;101237.38;5116542;28;20048;-70
2023/11/25 08:40:17;;;;;;;12.32;4.22;;;10.00;99.90;;;10.47;74.57;101241.84;5098141;28;20439;-70
2023/11/25 08:42:49;;;;;;;16.13;4.43;;;10.20;99.90;;;10.50;75.24;101240.09;5097999;28;20043;-70
2023/11/25 08:45:19;;;;;;;16.67;4.63;;;10.40;99.90;;;10.53;75.95;101240.09;5115896;28;20116;-69
2023/11/25 08:47:49;;;;;;;16.27;4.50;;;10.40;99.90;;;10.63;76.68;101243.63;5116120;28;20488;-70
2023/11/25 08:50:18;;;;;;;17.98;4.85;;;10.50;99.90;;;10.58;77.85;101250.69;5097947;28;20050;-70
2023/11/25 08:52:48;;;;;;;22.75;5.00;;;10.50;99.90;;;10.40;78.33;101238.31;5098199;28;20069;-70
2023/11/25 08:55:19;;;;;;;12.05;4.55;;;10.30;99.90;;;10.22;77.04;101229.47;5115966;28;20389;-69
2023/11/25 08:57:51;;;;;;;20.92;5.00;;;10.20;99.90;;;10.17;77.43;101229.44;5116166;28;20047;-69
2023/11/25 09:00:20;;;;;;;19.27;4.63;;;10.10;99.90;;;10.21;78.34;101230.31;5115997;28;20493;-70
2023/11/25 09:02:51;;;;;;;22.42;5.32;;;10.10;99.90;;;9.67;80.78;101228.31;5116001;28;20054;-70
2023/11/25 09:05:22;;;;;;;22.63;5.60;;;9.70;99.90;;;9.48;82.60;101223.81;5115665;28;20043;-69
2023/11/25 09:07:52;;;;;;;25.33;5.93;;;9.40;99.90;;;8.90;82.63;101143.41;5115690;28;20067;-70
2023/11/25 09:10:21;;;;;;;19.63;5.57;;;9.20;99.90;;;9.60;81.92;101239.75;5115583;28;20408;-70
2023/11/25 09:12:52;;;;;;;23.02;5.40;;;9.40;99.90;;;9.68;81.62;101238.88;5115855;28;20050;-69
2023/11/25 09:15:22;;;;;;;19.60;4.88;;;9.50;99.90;;;9.68;78.69;101257.38;5115410;28;20476;-69
2023/11/25 09:17:50;;;;;;;21.35;4.50;;;9.50;99.90;;;9.72;78.74;101256.53;5115449;28;20064;-69
2023/11/25 09:20:21;;;;;;;14.67;4.20;;;9.60;99.90;;;9.37;79.24;101244.88;5115234;28;20043;-69
2023/11/25 09:22:52;;;;;;;12.63;4.93;;;9.30;99.90;;;9.45;79.20;101243.16;5115582;28;20066;-69
2023/11/25 09:25:20;;;;;;;13.20;4.18;;;9.30;99.90;;;9.07;78.81;101221.81;5097273;28;20429;-70
2023/11/25 09:27:51;;;;;;;14.50;4.45;;;9.20;99.90;;;9.26;79.59;101238.63;5097229;28;20052;-69
2023/11/25 09:30:20;;;;;;;17.58;4.50;;;9.20;99.90;;;9.78;79.70;101239.81;5097267;28;20048;-69
2023/11/25 09:32:49;;;;;;;13.98;4.38;;;9.50;99.90;;;9.97;80.00;101242.53;5115180;28;20071;-70
2023/11/25 09:35:17;;;;;;;22.48;5.40;;;9.70;99.90;;;10.28;79.23;101240.91;5115044;28;20051;-69
2023/11/25 09:37:48;;;;;;;18.42;4.85;;;10.10;99.90;;;10.57;78.55;101246.25;5114091;28;20138;-69
2023/11/25 09:40:19;;;;;;;20.77;5.28;;;10.40;99.90;;;10.74;77.84;101231.31;5115004;28;20044;-69
2023/11/25 09:42:48;;;;;;;20.08;5.03;;;10.70;99.90;;;11.06;77.21;101249.81;5096991;28;20179;-69
2023/11/25 09:45:21;;;;;;;23.80;5.40;;;10.80;99.90;;;11.39;75.48;101248.03;5115082;28;20044;-69
2023/11/25 09:47:50;;;;;;;18.25;5.22;;;11.20;99.90;;;11.60;74.53;101207.34;5114915;28;20061;-69
2023/11/25 09:50:19;;;;;;;27.05;5.00;;;11.60;99.90;;;11.90;73.38;101248.81;5114780;28;20051;-70
2023/11/25 09:52:51;;;;;;;17.57;5.30;;;11.80;99.90;;;12.08;72.92;101251.41;5114898;28;20484;-70
2023/11/25 09:55:22;;;;;;;19.35;5.15;;;12.00;99.90;;;11.79;73.54;101247.06;5115337;28;20052;-70
2023/11/25 09:58:02;;;;;;;17.30;5.20;;;11.80;99.90;;;11.17;74.33;101148.31;5115347;28;20545;-70
2023/11/25 10:00:33;;;;;;;18.10;5.70;;;11.60;99.90;;;11.82;73.92;101227.66;5096125;28;20055;-70
2023/11/25 10:03:02;;;;;;;;;;;11.80;99.90;;;12.05;72.79;101265.53;5115032;28;20051;-70
2023/11/25 10:05:31;;;;;;;25.08;5.85;;;11.90;99.90;;;12.03;73.23;101258.47;5114492;28;19946;-70
2023/11/25 10:08:01;;;;;;;20.98;5.38;;;11.80;99.90;;;12.04;73.38;101262.91;5114555;28;20151;-70
2023/11/25 10:10:29;;;;;;;25.00;5.72;;;11.80;99.90;;;11.91;72.95;101237.31;5096385;28;20567;-70
2023/11/25 10:13:00;;;;;;;26.95;5.97;;;11.90;99.90;;;12.05;72.43;101269.97;5114338;28;20059;-71
2023/11/25 10:15:28;;;;;;;24.60;6.05;;;11.90;99.90;;;12.03;71.63;101261.13;5114705;28;20480;-71
2023/11/25 10:17:58;;;;;;;22.35;5.63;;;11.90;99.90;;;12.04;70.90;101262.91;5096233;28;20150;-71
2023/11/25 10:20:27;;;;;;;26.17;5.90;;;11.90;99.90;;;12.02;70.88;101270.00;5095895;28;20058;-70
2023/11/25 10:22:57;;;;;;;25.73;6.53;;;11.90;99.90;;;11.78;70.71;101263.00;5114167;28;20047;-70
2023/11/25 10:25:28;;;;;;;25.77;6.28;;;11.80;99.90;;;11.20;72.05;101217.19;5114417;28;20039;-70
2023/11/25 10:27:57;;;;;;;21.33;5.80;;;11.40;99.90;;;11.15;73.24;101261.28;5114128;28;20035;-70
2023/11/25 10:30:28;;;;;;;21.00;5.68;;;11.10;99.90;;;11.10;72.66;101255.13;5114372;28;20047;-69